CheckWX is a tool to help pilots better visualize weather data.  It is not intended as a substitute for an official pre-flight weather briefing.

13:20:34 UTC

KLVN METAR
Airlake Airport
Minneapolis, Minnesota, USA
Current

43 mins ago

KLVN 211238Z AUTO 19005KT 10SM BKN013 BKN024 OVC030 22/22 A2983 RMK AO2 LT
Observed
Sep-21 @ 12:38 UTC
Wind
  • 190° at 5 KTS
Visibility
10 SM
Flight Rules
MVFR
Cloud Levels
  • Broken at 1,300' AGL
  • Broken at 2,400' AGL
  • Overcast at 3,000' AGL
Temperature
22°C / 72°F
Dewpoint
22°C / 72°F
Humidity
100%
Altimeter
29.83" Hg
Pressure
1010.12 hPa
Previous

1 hour ago

KLVN 211210Z AUTO 18006KT 10SM SCT013 SCT020 OVC029 22/22 A2982 RMK AO2
Observed
Sep-21 @ 12:10 UTC
Wind
  • 180° at 6 KTS
Visibility
10 SM
Flight Rules
MVFR
Cloud Levels
  • Scattered at 1,300' AGL
  • Scattered at 2,000' AGL
  • Overcast at 2,900' AGL
Temperature
22°C / 72°F
Dewpoint
22°C / 72°F
Humidity
100%
Altimeter
29.82" Hg
Pressure
1009.82 hPa
Previous

1 hour ago

KLVN 211155Z AUTO 18005KT 10SM SCT015 BKN029 OVC065 22/22 A2983 RMK AO2 LT
Observed
Sep-21 @ 11:55 UTC
Wind
  • 180° at 5 KTS
Visibility
10 SM
Flight Rules
MVFR
Cloud Levels
  • Scattered at 1,500' AGL
  • Broken at 2,900' AGL
  • Overcast at 6,500' AGL
Temperature
22°C / 72°F
Dewpoint
22°C / 72°F
Humidity
100%
Altimeter
29.83" Hg
Pressure
1010.12 hPa